sensor_id;sensor_type;location;lat;lon;timestamp;temperature;humidity
26035;DHT22;13809;48.632;11.576;2023-04-29T00:02:57;14.90;46.90
26035;DHT22;13809;48.632;11.576;2023-04-29T00:08:02;14.90;47.10
26035;DHT22;13809;48.632;11.576;2023-04-29T00:13:05;14.90;46.90
26035;DHT22;13809;48.632;11.576;2023-04-29T00:18:10;14.90;46.90
26035;DHT22;13809;48.632;11.576;2023-04-29T00:23:14;15.00;47.30
26035;DHT22;13809;48.632;11.576;2023-04-29T00:28:18;15.00;47.00
26035;DHT22;13809;48.632;11.576;2023-04-29T00:33:22;15.10;47.00
26035;DHT22;13809;48.632;11.576;2023-04-29T00:38:25;15.10;47.20
26035;DHT22;13809;48.632;11.576;2023-04-29T00:43:28;15.20;46.90
26035;DHT22;13809;48.632;11.576;2023-04-29T00:48:33;15.20;46.60
26035;DHT22;13809;48.632;11.576;2023-04-29T00:53:36;15.20;46.60
26035;DHT22;13809;48.632;11.576;2023-04-29T00:58:40;15.30;46.30
26035;DHT22;13809;48.632;11.576;2023-04-29T01:03:47;15.30;45.90
26035;DHT22;13809;48.632;11.576;2023-04-29T01:09:03;15.20;46.00
26035;DHT22;13809;48.632;11.576;2023-04-29T01:14:08;15.20;46.50
26035;DHT22;13809;48.632;11.576;2023-04-29T01:19:18;15.20;45.90
26035;DHT22;13809;48.632;11.576;2023-04-29T01:24:23;15.10;45.90
26035;DHT22;13809;48.632;11.576;2023-04-29T01:29:31;15.20;45.80
26035;DHT22;13809;48.632;11.576;2023-04-29T01:34:43;15.20;45.50
26035;DHT22;13809;48.632;11.576;2023-04-29T01:39:55;15.10;45.30
26035;DHT22;13809;48.632;11.576;2023-04-29T01:45:00;15.00;45.40
26035;DHT22;13809;48.632;11.576;2023-04-29T01:50:07;14.90;45.40
26035;DHT22;13809;48.632;11.576;2023-04-29T01:55:12;14.90;45.50
26035;DHT22;13809;48.632;11.576;2023-04-29T02:00:15;14.80;45.80
26035;DHT22;13809;48.632;11.576;2023-04-29T02:05:18;14.80;45.60
26035;DHT22;13809;48.632;11.576;2023-04-29T02:10:23;14.80;45.60
26035;DHT22;13809;48.632;11.576;2023-04-29T02:15:26;14.80;45.80
26035;DHT22;13809;48.632;11.576;2023-04-29T02:20:29;14.80;45.50
26035;DHT22;13809;48.632;11.576;2023-04-29T02:25:33;14.80;45.40
26035;DHT22;13809;48.632;11.576;2023-04-29T02:30:37;14.80;45.50
26035;DHT22;13809;48.632;11.576;2023-04-29T02:35:40;14.70;45.10
26035;DHT22;13809;48.632;11.576;2023-04-29T02:40:45;14.70;45.40
26035;DHT22;13809;48.632;11.576;2023-04-29T02:45:48;14.60;45.60
26035;DHT22;13809;48.632;11.576;2023-04-29T02:50:51;14.60;45.50
26035;DHT22;13809;48.632;11.576;2023-04-29T02:55:56;14.50;45.70
26035;DHT22;13809;48.632;11.576;2023-04-29T03:01:02;14.50;46.00
26035;DHT22;13809;48.632;11.576;2023-04-29T03:06:05;14.60;46.10
26035;DHT22;13809;48.632;11.576;2023-04-29T03:11:10;14.50;46.00
26035;DHT22;13809;48.632;11.576;2023-04-29T03:16:13;14.50;46.40
26035;DHT22;13809;48.632;11.576;2023-04-29T03:21:17;14.50;46.30
26035;DHT22;13809;48.632;11.576;2023-04-29T03:26:22;14.50;46.30
26035;DHT22;13809;48.632;11.576;2023-04-29T03:31:26;14.50;46.70
26035;DHT22;13809;48.632;11.576;2023-04-29T03:36:29;14.50;46.40
26035;DHT22;13809;48.632;11.576;2023-04-29T03:41:34;14.50;46.50
26035;DHT22;13809;48.632;11.576;2023-04-29T03:46:37;14.40;47.10
26035;DHT22;13809;48.632;11.576;2023-04-29T03:51:40;14.40;47.20
26035;DHT22;13809;48.632;11.576;2023-04-29T03:56:45;14.40;47.70
26035;DHT22;13809;48.632;11.576;2023-04-29T04:01:48;14.50;48.70
26035;DHT22;13809;48.632;11.576;2023-04-29T04:06:51;14.60;48.10
26035;DHT22;13809;48.632;11.576;2023-04-29T04:11:56;14.60;47.60
26035;DHT22;13809;48.632;11.576;2023-04-29T04:16:59;14.60;47.80
26035;DHT22;13809;48.632;11.576;2023-04-29T04:22:02;14.60;47.80
26035;DHT22;13809;48.632;11.576;2023-04-29T04:27:07;14.60;48.10
26035;DHT22;13809;48.632;11.576;2023-04-29T04:32:10;14.70;48.80
26035;DHT22;13809;48.632;11.576;2023-04-29T04:37:13;14.80;48.10
26035;DHT22;13809;48.632;11.576;2023-04-29T04:42:18;14.90;48.00
26035;DHT22;13809;48.632;11.576;2023-04-29T04:47:21;14.90;48.30
26035;DHT22;13809;48.632;11.576;2023-04-29T04:52:24;14.90;48.20
26035;DHT22;13809;48.632;11.576;2023-04-29T04:57:29;15.00;48.40
26035;DHT22;13809;48.632;11.576;2023-04-29T05:02:32;15.00;49.10
26035;DHT22;13809;48.632;11.576;2023-04-29T05:07:35;15.10;48.70
26035;DHT22;13809;48.632;11.576;2023-04-29T05:12:40;15.20;48.90
26035;DHT22;13809;48.632;11.576;2023-04-29T05:17:43;15.20;49.40
26035;DHT22;13809;48.632;11.576;2023-04-29T05:22:46;15.30;49.00
26035;DHT22;13809;48.632;11.576;2023-04-29T05:27:50;15.30;49.00
26035;DHT22;13809;48.632;11.576;2023-04-29T05:32:54;15.30;49.40
26035;DHT22;13809;48.632;11.576;2023-04-29T05:37:57;15.40;49.00
26035;DHT22;13809;48.632;11.576;2023-04-29T05:43:02;15.50;49.20
26035;DHT22;13809;48.632;11.576;2023-04-29T05:48:05;15.50;49.80
26035;DHT22;13809;48.632;11.576;2023-04-29T05:53:08;15.50;49.30
26035;DHT22;13809;48.632;11.576;2023-04-29T05:58:13;15.50;50.20
26035;DHT22;13809;48.632;11.576;2023-04-29T06:03:16;15.60;49.90
26035;DHT22;13809;48.632;11.576;2023-04-29T06:08:20;15.60;49.40
26035;DHT22;13809;48.632;11.576;2023-04-29T06:13:24;15.70;49.60
26035;DHT22;13809;48.632;11.576;2023-04-29T06:18:28;15.70;50.20
26035;DHT22;13809;48.632;11.576;2023-04-29T06:23:31;15.80;49.80
26035;DHT22;13809;48.632;11.576;2023-04-29T06:28:35;15.90;50.00
26035;DHT22;13809;48.632;11.576;2023-04-29T06:33:39;16.00;50.70
26035;DHT22;13809;48.632;11.576;2023-04-29T06:38:42;16.00;50.20
26035;DHT22;13809;48.632;11.576;2023-04-29T06:43:46;16.10;50.20
26035;DHT22;13809;48.632;11.576;2023-04-29T06:48:49;16.20;50.70
26035;DHT22;13809;48.632;11.576;2023-04-29T06:53:53;16.30;50.40
26035;DHT22;13809;48.632;11.576;2023-04-29T06:58:57;16.40;50.50
26035;DHT22;13809;48.632;11.576;2023-04-29T07:04:00;16.40;50.70
26035;DHT22;13809;48.632;11.576;2023-04-29T07:09:03;16.50;50.10
26035;DHT22;13809;48.632;11.576;2023-04-29T07:14:08;16.60;49.90
26035;DHT22;13809;48.632;11.576;2023-04-29T07:19:11;16.60;50.10
26035;DHT22;13809;48.632;11.576;2023-04-29T07:24:14;16.60;49.80
26035;DHT22;13809;48.632;11.576;2023-04-29T07:29:19;16.70;50.40
26035;DHT22;13809;48.632;11.576;2023-04-29T07:34:22;16.80;50.40
26035;DHT22;13809;48.632;11.576;2023-04-29T07:39:25;16.80;50.20
26035;DHT22;13809;48.632;11.576;2023-04-29T07:44:31;16.90;50.40
26035;DHT22;13809;48.632;11.576;2023-04-29T07:49:34;17.00;50.50
26035;DHT22;13809;48.632;11.576;2023-04-29T07:54:37;17.10;50.30
26035;DHT22;13809;48.632;11.576;2023-04-29T07:59:41;17.20;50.20
26035;DHT22;13809;48.632;11.576;2023-04-29T08:04:44;17.30;51.10
26035;DHT22;13809;48.632;11.576;2023-04-29T08:09:48;17.40;50.20
26035;DHT22;13809;48.632;11.576;2023-04-29T08:14:52;17.60;50.50
26035;DHT22;13809;48.632;11.576;2023-04-29T08:19:56;17.70;49.80
26035;DHT22;13809;48.632;11.576;2023-04-29T08:24:59;17.90;49.20
26035;DHT22;13809;48.632;11.576;2023-04-29T08:30:06;18.00;49.90
26035;DHT22;13809;48.632;11.576;2023-04-29T08:35:09;18.20;49.60
26035;DHT22;13809;48.632;11.576;2023-04-29T08:40:13;18.50;49.00
26035;DHT22;13809;48.632;11.576;2023-04-29T08:45:19;18.60;48.50
26035;DHT22;13809;48.632;11.576;2023-04-29T08:50:23;18.80;47.70
26035;DHT22;13809;48.632;11.576;2023-04-29T08:55:26;19.00;47.90
26035;DHT22;13809;48.632;11.576;2023-04-29T09:00:31;19.30;48.10
26035;DHT22;13809;48.632;11.576;2023-04-29T09:05:36;19.50;46.90
26035;DHT22;13809;48.632;11.576;2023-04-29T09:10:42;19.70;47.20
26035;DHT22;13809;48.632;11.576;2023-04-29T09:15:47;19.90;46.60
26035;DHT22;13809;48.632;11.576;2023-04-29T09:20:50;20.00;46.20
26035;DHT22;13809;48.632;11.576;2023-04-29T09:25:55;20.20;45.80
26035;DHT22;13809;48.632;11.576;2023-04-29T09:31:01;20.30;42.50
26035;DHT22;13809;48.632;11.576;2023-04-29T09:36:07;20.40;41.70
26035;DHT22;13809;48.632;11.576;2023-04-29T09:41:11;20.30;42.50
26035;DHT22;13809;48.632;11.576;2023-04-29T09:46:20;20.30;42.70
26035;DHT22;13809;48.632;11.576;2023-04-29T09:51:23;20.30;42.10
26035;DHT22;13809;48.632;11.576;2023-04-29T09:56:26;20.40;42.70
26035;DHT22;13809;48.632;11.576;2023-04-29T10:01:33;20.50;41.20
26035;DHT22;13809;48.632;11.576;2023-04-29T10:06:40;20.60;40.50
26035;DHT22;13809;48.632;11.576;2023-04-29T10:11:44;20.70;39.60
26035;DHT22;13809;48.632;11.576;2023-04-29T10:16:52;20.70;40.70
26035;DHT22;13809;48.632;11.576;2023-04-29T10:21:57;20.90;39.90
26035;DHT22;13809;48.632;11.576;2023-04-29T10:27:06;21.10;39.80
26035;DHT22;13809;48.632;11.576;2023-04-29T10:32:13;21.20;38.10
26035;DHT22;13809;48.632;11.576;2023-04-29T10:37:17;21.20;37.60
26035;DHT22;13809;48.632;11.576;2023-04-29T10:42:27;21.00;38.90
26035;DHT22;13809;48.632;11.576;2023-04-29T10:47:34;20.80;38.40
26035;DHT22;13809;48.632;11.576;2023-04-29T10:52:54;20.60;38.60
26035;DHT22;13809;48.632;11.576;2023-04-29T10:57:58;20.40;38.10
26035;DHT22;13809;48.632;11.576;2023-04-29T11:03:05;20.20;38.80
26035;DHT22;13809;48.632;11.576;2023-04-29T11:08:09;20.00;37.90
26035;DHT22;13809;48.632;11.576;2023-04-29T11:13:24;19.80;38.10
26035;DHT22;13809;48.632;11.576;2023-04-29T11:18:30;19.80;38.40
26035;DHT22;13809;48.632;11.576;2023-04-29T11:23:33;19.80;39.00
26035;DHT22;13809;48.632;11.576;2023-04-29T11:28:37;19.80;39.30
26035;DHT22;13809;48.632;11.576;2023-04-29T11:33:42;19.80;39.00
26035;DHT22;13809;48.632;11.576;2023-04-29T11:38:45;19.80;39.00
26035;DHT22;13809;48.632;11.576;2023-04-29T11:43:54;19.80;39.40
26035;DHT22;13809;48.632;11.576;2023-04-29T11:49:01;19.90;38.40
26035;DHT22;13809;48.632;11.576;2023-04-29T11:54:04;19.90;38.80
26035;DHT22;13809;48.632;11.576;2023-04-29T11:59:09;19.90;39.20
26035;DHT22;13809;48.632;11.576;2023-04-29T12:04:14;19.90;38.70
26035;DHT22;13809;48.632;11.576;2023-04-29T12:09:19;19.80;38.60
26035;DHT22;13809;48.632;11.576;2023-04-29T12:14:25;19.70;38.30
26035;DHT22;13809;48.632;11.576;2023-04-29T12:19:29;19.70;38.40
26035;DHT22;13809;48.632;11.576;2023-04-29T12:24:34;19.70;38.00
26035;DHT22;13809;48.632;11.576;2023-04-29T12:29:38;19.60;37.80
26035;DHT22;13809;48.632;11.576;2023-04-29T12:34:45;19.50;38.00
26035;DHT22;13809;48.632;11.576;2023-04-29T12:39:48;19.50;37.30
26035;DHT22;13809;48.632;11.576;2023-04-29T12:44:52;19.50;37.60
26035;DHT22;13809;48.632;11.576;2023-04-29T12:49:57;19.60;38.00
26035;DHT22;13809;48.632;11.576;2023-04-29T12:55:00;19.60;37.70
26035;DHT22;13809;48.632;11.576;2023-04-29T13:00:04;19.70;37.40
26035;DHT22;13809;48.632;11.576;2023-04-29T13:05:09;19.70;37.30
26035;DHT22;13809;48.632;11.576;2023-04-29T13:10:13;19.80;36.80
26035;DHT22;13809;48.632;11.576;2023-04-29T13:15:17;19.80;36.80
26035;DHT22;13809;48.632;11.576;2023-04-29T13:20:21;19.80;36.40
26035;DHT22;13809;48.632;11.576;2023-04-29T13:25:24;19.80;36.30
26035;DHT22;13809;48.632;11.576;2023-04-29T13:30:27;19.80;36.40
26035;DHT22;13809;48.632;11.576;2023-04-29T13:35:32;19.80;36.50
26035;DHT22;13809;48.632;11.576;2023-04-29T13:40:36;19.70;36.20
26035;DHT22;13809;48.632;11.576;2023-04-29T13:45:47;19.70;36.20
26035;DHT22;13809;48.632;11.576;2023-04-29T13:50:51;19.70;36.20
26035;DHT22;13809;48.632;11.576;2023-04-29T13:55:59;19.70;36.20
26035;DHT22;13809;48.632;11.576;2023-04-29T14:01:22;19.80;36.40
26035;DHT22;13809;48.632;11.576;2023-04-29T14:06:46;19.80;36.30
26035;DHT22;13809;48.632;11.576;2023-04-29T14:11:49;19.80;36.30
26035;DHT22;13809;48.632;11.576;2023-04-29T14:16:52;19.80;36.30
26035;DHT22;13809;48.632;11.576;2023-04-29T14:21:57;19.70;36.60
26035;DHT22;13809;48.632;11.576;2023-04-29T14:27:00;19.70;36.90
26035;DHT22;13809;48.632;11.576;2023-04-29T14:32:04;19.80;36.40
26035;DHT22;13809;48.632;11.576;2023-04-29T14:37:09;19.80;36.30
26035;DHT22;13809;48.632;11.576;2023-04-29T14:42:12;19.80;36.30
26035;DHT22;13809;48.632;11.576;2023-04-29T14:47:15;19.80;36.30
26035;DHT22;13809;48.632;11.576;2023-04-29T14:52:20;19.80;36.30
26035;DHT22;13809;48.632;11.576;2023-04-29T14:57:23;19.80;36.30
26035;DHT22;13809;48.632;11.576;2023-04-29T15:02:26;19.80;36.30
26035;DHT22;13809;48.632;11.576;2023-04-29T15:07:31;19.80;36.40
26035;DHT22;13809;48.632;11.576;2023-04-29T15:12:34;19.80;35.80
26035;DHT22;13809;48.632;11.576;2023-04-29T15:17:37;19.80;36.30
26035;DHT22;13809;48.632;11.576;2023-04-29T15:22:42;19.80;36.30
26035;DHT22;13809;48.632;11.576;2023-04-29T15:27:46;19.80;36.20
26035;DHT22;13809;48.632;11.576;2023-04-29T15:32:49;19.80;36.30
26035;DHT22;13809;48.632;11.576;2023-04-29T15:37:53;19.70;36.20
26035;DHT22;13809;48.632;11.576;2023-04-29T15:42:57;19.70;36.00
26035;DHT22;13809;48.632;11.576;2023-04-29T15:48:00;19.60;36.20
26035;DHT22;13809;48.632;11.576;2023-04-29T15:53:05;19.60;36.10
26035;DHT22;13809;48.632;11.576;2023-04-29T15:58:08;19.50;35.90
26035;DHT22;13809;48.632;11.576;2023-04-29T16:03:11;19.50;36.10
26035;DHT22;13809;48.632;11.576;2023-04-29T16:08:16;19.40;36.00
26035;DHT22;13809;48.632;11.576;2023-04-29T16:13:19;19.30;35.90
26035;DHT22;13809;48.632;11.576;2023-04-29T16:18:22;19.30;35.90
26035;DHT22;13809;48.632;11.576;2023-04-29T16:23:26;19.20;35.80
26035;DHT22;13809;48.632;11.576;2023-04-29T16:28:30;19.10;35.70
26035;DHT22;13809;48.632;11.576;2023-04-29T16:33:33;19.00;35.60
26035;DHT22;13809;48.632;11.576;2023-04-29T16:38:37;18.90;35.60
26035;DHT22;13809;48.632;11.576;2023-04-29T16:43:40;18.90;35.50
26035;DHT22;13809;48.632;11.576;2023-04-29T16:48:43;18.90;35.50
26035;DHT22;13809;48.632;11.576;2023-04-29T16:53:48;18.90;35.50
26035;DHT22;13809;48.632;11.576;2023-04-29T16:58:51;18.80;35.50
26035;DHT22;13809;48.632;11.576;2023-04-29T17:03:55;18.80;35.50
26035;DHT22;13809;48.632;11.576;2023-04-29T17:08:59;18.80;35.50
26035;DHT22;13809;48.632;11.576;2023-04-29T17:14:03;18.80;35.50
26035;DHT22;13809;48.632;11.576;2023-04-29T17:19:06;18.70;35.40
26035;DHT22;13809;48.632;11.576;2023-04-29T17:24:11;18.70;35.40
26035;DHT22;13809;48.632;11.576;2023-04-29T17:29:14;18.60;35.30
26035;DHT22;13809;48.632;11.576;2023-04-29T17:34:17;18.50;35.20
26035;DHT22;13809;48.632;11.576;2023-04-29T17:39:25;18.50;35.20
26035;DHT22;13809;48.632;11.576;2023-04-29T17:44:28;18.40;35.10
26035;DHT22;13809;48.632;11.576;2023-04-29T17:49:31;18.40;35.10
26035;DHT22;13809;48.632;11.576;2023-04-29T17:54:39;18.30;35.10
26035;DHT22;13809;48.632;11.576;2023-04-29T17:59:42;18.40;35.10
26035;DHT22;13809;48.632;11.576;2023-04-29T18:04:45;18.30;35.00
26035;DHT22;13809;48.632;11.576;2023-04-29T18:09:50;18.30;35.00
26035;DHT22;13809;48.632;11.576;2023-04-29T18:14:53;18.30;35.00
26035;DHT22;13809;48.632;11.576;2023-04-29T18:19:56;18.30;35.00
26035;DHT22;13809;48.632;11.576;2023-04-29T18:25:01;18.20;34.90
26035;DHT22;13809;48.632;11.576;2023-04-29T18:30:05;18.20;35.00
26035;DHT22;13809;48.632;11.576;2023-04-29T18:35:09;18.10;34.80
26035;DHT22;13809;48.632;11.576;2023-04-29T18:40:13;18.10;34.80
26035;DHT22;13809;48.632;11.576;2023-04-29T18:45:16;18.00;34.70
26035;DHT22;13809;48.632;11.576;2023-04-29T18:50:19;17.90;34.70
26035;DHT22;13809;48.632;11.576;2023-04-29T18:55:24;17.90;35.00
26035;DHT22;13809;48.632;11.576;2023-04-29T19:00:28;17.80;35.10
26035;DHT22;13809;48.632;11.576;2023-04-29T19:05:31;17.80;35.20
26035;DHT22;13809;48.632;11.576;2023-04-29T19:10:35;17.80;35.40
26035;DHT22;13809;48.632;11.576;2023-04-29T19:15:39;17.80;35.40
26035;DHT22;13809;48.632;11.576;2023-04-29T19:20:42;17.70;35.40
26035;DHT22;13809;48.632;11.576;2023-04-29T19:25:46;17.80;35.50
26035;DHT22;13809;48.632;11.576;2023-04-29T19:30:49;17.70;35.20
26035;DHT22;13809;48.632;11.576;2023-04-29T19:35:53;17.70;35.20
26035;DHT22;13809;48.632;11.576;2023-04-29T19:40:58;17.60;35.10
26035;DHT22;13809;48.632;11.576;2023-04-29T19:46:01;17.60;35.10
26035;DHT22;13809;48.632;11.576;2023-04-29T19:51:05;17.50;35.30
26035;DHT22;13809;48.632;11.576;2023-04-29T19:56:10;17.50;35.40
26035;DHT22;13809;48.632;11.576;2023-04-29T20:01:13;17.40;35.30
26035;DHT22;13809;48.632;11.576;2023-04-29T20:06:16;17.40;35.60
26035;DHT22;13809;48.632;11.576;2023-04-29T20:11:21;17.40;35.50
26035;DHT22;13809;48.632;11.576;2023-04-29T20:16:25;17.40;35.40
26035;DHT22;13809;48.632;11.576;2023-04-29T20:21:30;17.30;35.40
26035;DHT22;13809;48.632;11.576;2023-04-29T20:26:35;17.20;35.40
26035;DHT22;13809;48.632;11.576;2023-04-29T20:31:38;17.20;35.60
26035;DHT22;13809;48.632;11.576;2023-04-29T20:36:42;17.20;35.60
26035;DHT22;13809;48.632;11.576;2023-04-29T20:41:46;17.20;35.70
26035;DHT22;13809;48.632;11.576;2023-04-29T20:46:50;17.10;35.80
26035;DHT22;13809;48.632;11.576;2023-04-29T20:51:53;17.10;35.70
26035;DHT22;13809;48.632;11.576;2023-04-29T20:56:58;17.00;35.80
26035;DHT22;13809;48.632;11.576;2023-04-29T21:02:01;17.00;35.90
26035;DHT22;13809;48.632;11.576;2023-04-29T21:07:04;17.00;36.10
26035;DHT22;13809;48.632;11.576;2023-04-29T21:12:09;16.90;36.10
26035;DHT22;13809;48.632;11.576;2023-04-29T21:17:15;16.90;36.20
26035;DHT22;13809;48.632;11.576;2023-04-29T21:22:18;16.90;36.10
26035;DHT22;13809;48.632;11.576;2023-04-29T21:27:23;16.90;36.20
26035;DHT22;13809;48.632;11.576;2023-04-29T21:32:26;16.90;36.20
26035;DHT22;13809;48.632;11.576;2023-04-29T21:37:29;16.80;36.20
26035;DHT22;13809;48.632;11.576;2023-04-29T21:42:34;16.70;36.20
26035;DHT22;13809;48.632;11.576;2023-04-29T21:47:37;16.70;36.40
26035;DHT22;13809;48.632;11.576;2023-04-29T21:52:40;16.70;36.50
26035;DHT22;13809;48.632;11.576;2023-04-29T21:57:45;16.70;36.50
26035;DHT22;13809;48.632;11.576;2023-04-29T22:02:48;16.70;36.70
26035;DHT22;13809;48.632;11.576;2023-04-29T22:07:51;16.70;36.50
26035;DHT22;13809;48.632;11.576;2023-04-29T22:12:56;16.60;37.10
26035;DHT22;13809;48.632;11.576;2023-04-29T22:17:59;16.50;36.50
26035;DHT22;13809;48.632;11.576;2023-04-29T22:23:02;16.50;36.60
26035;DHT22;13809;48.632;11.576;2023-04-29T22:28:06;16.40;36.60
26035;DHT22;13809;48.632;11.576;2023-04-29T22:33:11;16.40;36.80
26035;DHT22;13809;48.632;11.576;2023-04-29T22:38:14;16.30;36.90
26035;DHT22;13809;48.632;11.576;2023-04-29T22:43:19;16.20;36.60
26035;DHT22;13809;48.632;11.576;2023-04-29T22:48:22;16.20;37.00
26035;DHT22;13809;48.632;11.576;2023-04-29T22:53:28;16.10;36.90
26035;DHT22;13809;48.632;11.576;2023-04-29T22:58:33;16.10;37.90
26035;DHT22;13809;48.632;11.576;2023-04-29T23:03:36;16.10;37.50
26035;DHT22;13809;48.632;11.576;2023-04-29T23:08:39;16.10;37.30
26035;DHT22;13809;48.632;11.576;2023-04-29T23:13:43;16.10;37.40
26035;DHT22;13809;48.632;11.576;2023-04-29T23:18:47;16.10;37.50
26035;DHT22;13809;48.632;11.576;2023-04-29T23:23:50;16.00;37.20
26035;DHT22;13809;48.632;11.576;2023-04-29T23:28:54;16.00;37.30
26035;DHT22;13809;48.632;11.576;2023-04-29T23:33:58;16.00;37.60
26035;DHT22;13809;48.632;11.576;2023-04-29T23:39:01;16.00;37.60
26035;DHT22;13809;48.632;11.576;2023-04-29T23:44:06;16.00;37.40
26035;DHT22;13809;48.632;11.576;2023-04-29T23:49:09;16.00;37.60
26035;DHT22;13809;48.632;11.576;2023-04-29T23:54:12;15.90;37.40
26035;DHT22;13809;48.632;11.576;2023-04-29T23:59:16;15.90;37.30
